Time;durP1;ratioP1;P1;durP2;ratioP2;P2;SDS_P1;SDS_P2;PMS_P1;PMS_P2;Temp;Humidity;BMP_temperature;BMP_pressure;BME280_temperature;BME280_humidity;BME280_pressure;Samples;Min_cycle;Max_cycle;Signal;HPM_P1;HPM_P2
2021/09/02 00:02:23;;;;;;;0.45;0.32;;;8.50;99.90;;;;;;5052323;28;20121;-68
2021/09/02 00:04:49;;;;;;;2.05;0.40;;;8.40;99.90;;;;;;5052586;28;20036;-68
2021/09/02 00:07:15;;;;;;;0.30;0.30;;;8.40;99.90;;;;;;5052289;28;20032;-68
2021/09/02 00:09:40;;;;;;;0.20;0.20;;;8.40;99.90;;;;;;5052878;28;20469;-68
2021/09/02 00:12:06;;;;;;;0.40;0.40;;;8.30;99.90;;;;;;5052387;28;20477;-68
2021/09/02 00:14:32;;;;;;;2.42;0.60;;;8.30;99.90;;;;;;5052663;28;20111;-68
2021/09/02 00:16:58;;;;;;;1.35;0.55;;;8.30;99.90;;;;;;5052598;28;20461;-68
2021/09/02 00:19:24;;;;;;;0.30;0.30;;;8.30;99.90;;;;;;5052454;28;20048;-68
2021/09/02 00:21:49;;;;;;;0.30;0.30;;;8.20;99.90;;;;;;5052137;28;20021;-68
2021/09/02 00:24:15;;;;;;;1.35;0.30;;;8.20;99.90;;;;;;5052015;28;20037;-68
2021/09/02 00:26:42;;;;;;;1.58;0.30;;;8.20;99.90;;;;;;5052199;28;20021;-69
2021/09/02 00:29:08;;;;;;;1.20;0.30;;;8.20;99.90;;;;;;5052546;28;20036;-68
2021/09/02 00:31:34;;;;;;;0.40;0.30;;;8.20;99.90;;;;;;5052210;28;20337;-68
2021/09/02 00:34:00;;;;;;;4.70;2.05;;;8.20;99.90;;;;;;5052525;28;20492;-69
2021/09/02 00:36:26;;;;;;;0.30;0.30;;;8.20;99.90;;;;;;5052083;28;20021;-68
2021/09/02 00:38:52;;;;;;;1.65;0.30;;;8.10;99.90;;;;;;5052147;28;20029;-68
2021/09/02 00:41:18;;;;;;;2.38;0.30;;;8.10;99.90;;;;;;5051951;28;20025;-69
2021/09/02 00:43:44;;;;;;;0.43;0.20;;;8.10;99.90;;;;;;5052065;28;20028;-68
2021/09/02 00:46:11;;;;;;;0.38;0.20;;;8.10;99.90;;;;;;5052294;28;20027;-69
2021/09/02 00:48:37;;;;;;;0.30;0.20;;;8.10;99.90;;;;;;5052229;28;20025;-68
2021/09/02 00:51:03;;;;;;;3.00;0.30;;;8.10;99.90;;;;;;5052231;28;20162;-68
2021/09/02 00:53:31;;;;;;;0.35;0.20;;;8.00;99.90;;;;;;5051723;28;20555;-68
2021/09/02 00:55:57;;;;;;;1.13;0.40;;;8.00;99.90;;;;;;5051783;28;20037;-68
2021/09/02 00:58:22;;;;;;;0.20;0.20;;;8.00;99.90;;;;;;5051565;28;20033;-68
2021/09/02 01:00:48;;;;;;;0.63;0.20;;;8.00;99.90;;;;;;5051841;28;20025;-69
2021/09/02 01:03:19;;;;;;;0.32;0.20;;;7.90;99.90;;;;;;5051772;28;20518;-68
2021/09/02 01:05:54;;;;;;;1.30;0.40;;;7.90;99.90;;;;;;5052015;28;20094;-68
2021/09/02 01:08:20;;;;;;;0.28;0.20;;;7.90;99.90;;;;;;5051768;28;20032;-68
2021/09/02 01:10:51;;;;;;;1.30;0.30;;;7.80;99.90;;;;;;5051986;28;20025;-68
2021/09/02 01:13:23;;;;;;;0.52;0.30;;;7.80;99.90;;;;;;5051697;28;20124;-69
2021/09/02 01:15:49;;;;;;;0.30;0.30;;;7.80;99.90;;;;;;5051638;28;20139;-69
2021/09/02 01:44:54;;;;;;;1.05;0.20;;;7.50;99.90;;;;;;5051280;28;20037;-68
2021/09/02 01:47:22;;;;;;;0.52;0.30;;;7.50;99.90;;;;;;5051210;28;20075;-68
2021/09/02 01:49:48;;;;;;;1.00;0.40;;;7.50;99.90;;;;;;5051325;28;20033;-68
2021/09/02 01:52:14;;;;;;;0.75;0.30;;;7.50;99.90;;;;;;5051272;28;20044;-68
2021/09/02 01:54:40;;;;;;;2.40;0.43;;;7.50;99.90;;;;;;5051160;28;20048;-68
2021/09/02 01:57:07;;;;;;;0.47;0.40;;;7.50;99.90;;;;;;5051153;28;20025;-69
2021/09/02 01:59:32;;;;;;;0.55;0.40;;;7.40;99.90;;;;;;5051366;28;20025;-68
2021/09/02 02:01:58;;;;;;;1.10;0.43;;;7.40;99.90;;;;;;5051536;28;20104;-68
2021/09/02 02:04:24;;;;;;;0.30;0.30;;;7.40;99.90;;;;;;5052408;28;20029;-68
2021/09/02 02:06:49;;;;;;;0.43;0.30;;;7.40;99.90;;;;;;5055146;28;20032;-68
2021/09/02 02:09:15;;;;;;;0.65;0.40;;;7.40;99.90;;;;;;5054708;28;20134;-68
2021/09/02 02:11:41;;;;;;;4.57;0.70;;;7.40;99.90;;;;;;5054613;28;20119;-69
2021/09/02 02:14:06;;;;;;;2.00;0.50;;;7.40;99.90;;;;;;5054883;28;20037;-68
2021/09/02 02:16:32;;;;;;;0.65;0.35;;;7.40;99.90;;;;;;5054646;28;20031;-68
2021/09/02 02:18:58;;;;;;;0.50;0.45;;;7.40;99.90;;;;;;5054817;28;20037;-68
2021/09/02 02:21:24;;;;;;;0.75;0.30;;;7.40;99.90;;;;;;5054751;28;20021;-68
2021/09/02 02:23:49;;;;;;;0.52;0.40;;;7.40;99.90;;;;;;5054729;28;20033;-68
2021/09/02 02:26:15;;;;;;;0.40;0.35;;;7.40;99.90;;;;;;5054634;28;20526;-68
2021/09/02 02:28:41;;;;;;;1.58;0.40;;;7.40;99.90;;;;;;5054657;28;20108;-68
2021/09/02 02:31:07;;;;;;;1.27;0.40;;;7.40;99.90;;;;;;5054507;28;20376;-68
2021/09/02 02:33:32;;;;;;;1.05;0.30;;;7.40;99.90;;;;;;5054467;28;20463;-68
2021/09/02 02:35:58;;;;;;;0.65;0.40;;;7.40;99.90;;;;;;5054207;28;20053;-68
2021/09/02 02:38:24;;;;;;;1.50;0.50;;;7.40;99.90;;;;;;5053927;28;20074;-68
2021/09/02 02:40:49;;;;;;;0.40;0.40;;;7.40;99.90;;;;;;5054097;28;20049;-68
2021/09/02 02:43:15;;;;;;;3.15;0.47;;;7.40;99.90;;;;;;5054201;28;20052;-68
2021/09/02 02:45:41;;;;;;;0.75;0.40;;;7.40;99.90;;;;;;5054110;28;20541;-68
2021/09/02 02:48:07;;;;;;;0.77;0.50;;;7.40;99.90;;;;;;5054115;28;20032;-68
2021/09/02 02:50:32;;;;;;;0.93;0.38;;;7.40;99.90;;;;;;5054227;28;20384;-68
2021/09/02 02:52:59;;;;;;;0.45;0.32;;;7.30;99.90;;;;;;5053804;28;20516;-68
2021/09/02 02:55:26;;;;;;;2.42;0.40;;;7.30;99.90;;;;;;5053587;28;20045;-68
2021/09/02 02:57:53;;;;;;;2.70;0.40;;;7.30;99.90;;;;;;5053713;28;20032;-68
2021/09/02 03:00:19;;;;;;;3.80;0.50;;;7.30;99.90;;;;;;5053647;28;20025;-68
2021/09/02 03:02:45;;;;;;;1.30;0.60;;;7.30;99.90;;;;;;5053769;28;20033;-68
2021/09/02 03:05:11;;;;;;;2.22;0.55;;;7.30;99.90;;;;;;5053536;28;20027;-68
2021/09/02 03:07:37;;;;;;;0.57;0.50;;;7.20;99.90;;;;;;5053724;28;20032;-68
2021/09/02 03:10:06;;;;;;;1.10;0.40;;;7.20;99.90;;;;;;5053419;28;20029;-68
2021/09/02 03:12:31;;;;;;;0.65;0.50;;;7.20;99.90;;;;;;5053464;28;20040;-68
2021/09/02 03:14:57;;;;;;;0.50;0.45;;;7.20;99.90;;;;;;5053453;28;20025;-68
2021/09/02 03:21:37;;;;;;;1.35;0.40;;;7.20;99.90;;;;;;5053727;28;20136;-68
2021/09/02 03:24:03;;;;;;;0.90;0.60;;;7.20;99.90;;;;;;5053179;28;20059;-68
2021/09/02 03:26:29;;;;;;;0.93;0.40;;;7.20;99.90;;;;;;5053628;28;20036;-68
2021/09/02 03:28:55;;;;;;;2.78;0.57;;;7.30;99.90;;;;;;5053309;28;20021;-68
2021/09/02 03:31:20;;;;;;;1.17;0.70;;;7.20;99.90;;;;;;5053191;28;20037;-68
2021/09/02 03:33:46;;;;;;;1.38;0.50;;;7.30;99.90;;;;;;5053408;28;20048;-68
2021/09/02 03:36:12;;;;;;;1.67;0.50;;;7.30;99.90;;;;;;5053310;28;20445;-68
2021/09/02 03:38:37;;;;;;;0.60;0.50;;;7.20;99.90;;;;;;5053251;28;20505;-68
2021/09/02 03:41:03;;;;;;;2.15;0.50;;;7.30;99.90;;;;;;5052935;28;20029;-69
2021/09/02 03:43:29;;;;;;;0.70;0.50;;;7.20;99.90;;;;;;5052840;28;20028;-68
2021/09/02 03:45:54;;;;;;;3.58;0.45;;;7.30;99.90;;;;;;5052934;28;20033;-68
2021/09/02 03:48:21;;;;;;;3.40;0.40;;;7.30;99.90;;;;;;5052944;28;20026;-68
2021/09/02 03:50:47;;;;;;;4.68;1.00;;;7.30;99.90;;;;;;5052832;28;20511;-68
2021/09/02 03:53:13;;;;;;;2.50;0.60;;;7.30;99.90;;;;;;5052753;28;20436;-68
2021/09/02 03:55:39;;;;;;;2.17;0.50;;;7.30;99.90;;;;;;5052652;28;20045;-68
2021/09/02 03:58:07;;;;;;;0.70;0.60;;;7.30;99.90;;;;;;5052620;28;20025;-68
2021/09/02 04:00:34;;;;;;;0.45;0.30;;;7.30;99.90;;;;;;5052596;28;20021;-68
2021/09/02 04:03:00;;;;;;;4.22;0.80;;;7.30;99.90;;;;;;5052536;28;20427;-68
2021/09/02 04:05:25;;;;;;;3.30;0.70;;;7.30;99.90;;;;;;5052484;28;20021;-68
2021/09/02 04:07:51;;;;;;;1.38;0.40;;;7.40;99.90;;;;;;5052751;28;20110;-68
2021/09/02 04:10:17;;;;;;;1.50;0.47;;;7.30;99.90;;;;;;5052266;28;20163;-68
2021/09/02 04:12:42;;;;;;;2.92;0.40;;;7.40;99.90;;;;;;5052234;28;20614;-68
2021/09/02 04:15:09;;;;;;;1.13;0.60;;;7.40;99.90;;;;;;5052549;28;20029;-68
2021/09/02 04:17:34;;;;;;;1.65;0.45;;;7.40;99.90;;;;;;5052520;28;20035;-68
2021/09/02 04:20:00;;;;;;;0.40;0.40;;;7.40;99.90;;;;;;5052494;28;20100;-68
2021/09/02 04:22:26;;;;;;;1.05;0.50;;;7.40;99.90;;;;;;5052055;28;20477;-68
2021/09/02 04:24:52;;;;;;;4.13;0.70;;;7.40;99.90;;;;;;5052252;28;20033;-68
2021/09/02 04:27:17;;;;;;;0.95;0.60;;;7.50;99.90;;;;;;5051469;28;20052;-68
2021/09/02 04:29:43;;;;;;;0.90;0.52;;;7.50;99.90;;;;;;5051938;28;20036;-68
2021/09/02 04:32:10;;;;;;;2.50;0.50;;;7.50;99.90;;;;;;5051756;28;20029;-67
2021/09/02 04:34:37;;;;;;;0.63;0.45;;;7.50;99.90;;;;;;5051912;28;20449;-67
2021/09/02 04:37:03;;;;;;;1.58;0.40;;;7.50;99.90;;;;;;5052338;28;20137;-69
2021/09/02 04:39:29;;;;;;;5.97;0.65;;;7.60;99.90;;;;;;5070575;28;20032;-67
2021/09/02 04:41:55;;;;;;;2.25;0.50;;;8.70;99.90;;;;;;5071968;28;20025;-68
2021/09/02 04:44:21;;;;;;;0.93;0.40;;;9.10;99.90;;;;;;5071613;28;20031;-69
2021/09/02 04:46:47;;;;;;;0.50;0.50;;;8.90;99.90;;;;;;5065161;28;20020;-69
2021/09/02 04:49:12;;;;;;;0.40;0.40;;;8.70;99.90;;;;;;5061477;28;20068;-69
2021/09/02 04:51:38;;;;;;;1.23;0.40;;;8.50;99.90;;;;;;5063326;28;20029;-68
2021/09/02 04:54:04;;;;;;;2.13;0.45;;;8.50;99.90;;;;;;5060182;28;20505;-67
2021/09/02 04:56:30;;;;;;;0.40;0.38;;;8.40;99.90;;;;;;5059171;28;20028;-67
2021/09/02 04:58:55;;;;;;;2.80;0.70;;;8.40;99.90;;;;;;5063181;28;20097;-69
2021/09/02 05:01:21;;;;;;;2.80;0.50;;;8.30;99.90;;;;;;5061404;28;20107;-67
2021/09/02 05:03:47;;;;;;;0.75;0.40;;;8.30;99.90;;;;;;5062266;28;20021;-68
2021/09/02 05:06:12;;;;;;;0.70;0.50;;;8.30;99.90;;;;;;5060117;28;20077;-68
2021/09/02 05:08:38;;;;;;;2.40;0.57;;;8.30;99.90;;;;;;5059281;28;20018;-68
2021/09/02 05:11:04;;;;;;;2.45;0.60;;;8.30;99.90;;;;;;5061225;28;20032;-68
2021/09/02 05:13:29;;;;;;;0.43;0.43;;;8.40;99.90;;;;;;5071765;28;20148;-69
2021/09/02 05:15:55;;;;;;;2.97;0.45;;;8.40;99.90;;;;;;5071637;28;20031;-68
2021/09/02 05:18:21;;;;;;;0.68;0.43;;;8.50;99.90;;;;;;5071580;28;20027;-68
2021/09/02 05:20:47;;;;;;;4.55;0.60;;;8.60;99.90;;;;;;5071793;28;20033;-68
2021/09/02 05:23:12;;;;;;;1.05;0.30;;;8.60;99.90;;;;;;5071289;28;20435;-68
2021/09/02 05:25:38;;;;;;;1.60;0.45;;;8.60;99.90;;;;;;5071447;28;20024;-68
2021/09/02 05:28:04;;;;;;;2.65;0.65;;;8.60;99.90;;;;;;5071563;28;20077;-68
2021/09/02 05:30:30;;;;;;;2.70;0.55;;;8.60;99.90;;;;;;5071486;28;20027;-68
2021/09/02 05:32:55;;;;;;;0.30;0.30;;;8.60;99.90;;;;;;5071536;28;20480;-68
2021/09/02 05:35:21;;;;;;;0.30;0.30;;;8.70;99.90;;;;;;5071579;28;20414;-68
2021/09/02 05:37:47;;;;;;;2.47;0.50;;;8.80;99.90;;;;;;5071127;28;20548;-68
2021/09/02 05:40:13;;;;;;;3.58;0.40;;;8.90;99.90;;;;;;5066351;28;20040;-68
2021/09/02 05:42:39;;;;;;;1.10;0.50;;;9.10;99.90;;;;;;5062818;28;20159;-68
2021/09/02 05:45:05;;;;;;;3.50;0.43;;;9.10;99.90;;;;;;5053824;28;20111;-68
2021/09/02 05:47:31;;;;;;;2.30;0.60;;;9.10;99.90;;;;;;5054940;28;20115;-71
2021/09/02 05:49:57;;;;;;;4.20;0.52;;;9.10;99.90;;;;;;5057653;28;20572;-68
2021/09/02 05:52:22;;;;;;;0.98;0.50;;;9.20;99.90;;;;;;5073973;28;20047;-70
2021/09/02 05:54:53;;;;;;;2.28;0.50;;;9.30;99.90;;;;;;5074754;28;20664;-71
2021/09/02 05:57:22;;;;;;;4.60;0.55;;;9.40;99.90;;;;;;5070676;28;20108;-70
2021/09/02 05:59:48;;;;;;;2.25;0.40;;;9.40;99.90;;;;;;5054555;28;20088;-68
2021/09/02 06:02:14;;;;;;;0.70;0.50;;;9.40;99.90;;;;;;5069356;28;20082;-68
2021/09/02 06:04:40;;;;;;;1.52;0.47;;;9.40;99.90;;;;;;5068167;28;20411;-70
2021/09/02 06:07:05;;;;;;;0.90;0.40;;;9.40;99.90;;;;;;5064616;28;20031;-67
2021/09/02 06:09:31;;;;;;;0.98;0.40;;;9.40;99.90;;;;;;5062214;28;20524;-66
2021/09/02 06:11:57;;;;;;;1.00;0.40;;;9.40;99.90;;;;;;5065365;28;20083;-67
2021/09/02 06:14:23;;;;;;;2.25;0.60;;;9.40;99.90;;;;;;5063355;28;20582;-67
2021/09/02 06:16:48;;;;;;;2.15;0.40;;;9.50;99.90;;;;;;5066090;28;20044;-67
2021/09/02 06:19:14;;;;;;;1.80;0.40;;;9.50;99.90;;;;;;5062886;28;20056;-68
2021/09/02 06:21:40;;;;;;;3.08;0.50;;;9.50;99.90;;;;;;5064769;28;20055;-68
2021/09/02 06:24:06;;;;;;;1.95;0.55;;;9.50;99.90;;;;;;5057296;28;20131;-73
2021/09/02 06:26:31;;;;;;;0.47;0.40;;;9.60;99.90;;;;;;5055979;28;20051;-69
2021/09/02 06:28:57;;;;;;;0.60;0.30;;;9.60;99.90;;;;;;5071924;28;20044;-69
2021/09/02 06:31:23;;;;;;;3.88;0.47;;;9.70;99.90;;;;;;5073743;28;20089;-68
2021/09/02 06:33:48;;;;;;;0.63;0.45;;;9.70;99.90;;;;;;5073839;28;20048;-68
2021/09/02 06:36:14;;;;;;;0.63;0.40;;;9.70;99.90;;;;;;5074061;28;20024;-68
2021/09/02 06:38:40;;;;;;;1.33;0.47;;;9.70;99.90;;;;;;5073707;28;20480;-70
2021/09/02 06:41:06;;;;;;;2.92;0.47;;;9.70;99.90;;;;;;5073438;28;20032;-69
2021/09/02 06:43:32;;;;;;;2.20;0.63;;;9.70;99.90;;;;;;5073793;28;20059;-69
2021/09/02 06:45:57;;;;;;;0.65;0.50;;;10.50;99.90;;;;;;5073382;28;20089;-70
2021/09/02 06:48:23;;;;;;;3.35;0.50;;;10.80;99.90;;;;;;5073773;28;20024;-71
2021/09/02 06:50:49;;;;;;;2.30;1.00;;;10.70;99.90;;;;;;5073058;28;20043;-72
2021/09/02 06:53:14;;;;;;;0.30;0.30;;;10.80;99.90;;;;;;5073691;28;20119;-72
2021/09/02 06:55:40;;;;;;;2.00;0.52;;;11.00;99.90;;;;;;5073409;28;20041;-71
2021/09/02 06:58:06;;;;;;;0.55;0.40;;;11.20;99.90;;;;;;5073285;28;20029;-72
2021/09/02 07:00:31;;;;;;;0.22;0.22;;;11.40;99.90;;;;;;5069883;28;20051;-72
2021/09/02 07:02:57;;;;;;;0.63;0.40;;;11.50;99.90;;;;;;5053748;28;20025;-72
2021/09/02 07:05:23;;;;;;;1.00;0.35;;;11.50;99.90;;;;;;5053352;28;20107;-72
2021/09/02 07:07:49;;;;;;;2.75;0.30;;;11.60;99.90;;;;;;5053147;28;20065;-73
2021/09/02 07:10:15;;;;;;;0.30;0.30;;;11.70;99.90;;;;;;5070384;28;20040;-79
2021/09/02 07:12:40;;;;;;;2.10;0.30;;;11.80;99.90;;;;;;5072804;28;20112;-76
2021/09/02 07:15:07;;;;;;;0.63;0.30;;;11.90;99.90;;;;;;5070291;28;20020;-77
2021/09/02 07:17:32;;;;;;;1.05;0.45;;;11.80;99.90;;;;;;5073452;28;20028;-78
2021/09/02 07:19:59;;;;;;;0.20;0.20;;;12.40;99.90;;;;;;5073118;28;20659;-79
2021/09/02 07:22:25;;;;;;;0.20;0.20;;;12.30;99.90;;;;;;5072968;28;20036;-79
2021/09/02 07:24:51;;;;;;;0.95;0.40;;;11.80;99.90;;;;;;5072988;28;20086;-78
2021/09/02 07:27:17;;;;;;;0.25;0.20;;;11.40;99.90;;;;;;5072836;28;20051;-78
2021/09/02 07:29:43;;;;;;;0.57;0.28;;;11.20;99.90;;;;;;5073271;28;20031;-82
2021/09/02 07:32:08;;;;;;;0.30;0.30;;;11.00;99.90;;;;;;5073062;28;20059;-77
2021/09/02 07:34:34;;;;;;;0.75;0.30;;;10.90;99.90;;;;;;5072646;28;20028;-70
2021/09/02 07:37:01;;;;;;;0.60;0.30;;;10.80;99.90;;;;;;5072953;28;20028;-70
2021/09/02 07:39:26;;;;;;;0.77;0.40;;;10.80;99.90;;;;;;5072553;28;20599;-70
2021/09/02 07:41:52;;;;;;;1.05;0.38;;;10.80;99.90;;;;;;5072614;28;20036;-70
2021/09/02 07:44:18;;;;;;;4.88;0.35;;;10.80;99.90;;;;;;5072504;28;20031;-70
2021/09/02 07:46:44;;;;;;;4.38;0.40;;;10.80;99.90;;;;;;5072985;28;20155;-71
2021/09/02 07:49:10;;;;;;;0.50;0.30;;;10.90;99.90;;;;;;5072901;28;20472;-69
2021/09/02 07:51:35;;;;;;;2.85;0.30;;;10.80;99.90;;;;;;5072076;28;20476;-69
2021/09/02 07:54:01;;;;;;;0.30;0.30;;;10.90;99.90;;;;;;5064684;28;20060;-69
2021/09/02 07:56:27;;;;;;;0.30;0.22;;;10.90;99.90;;;;;;5060845;28;20025;-69
2021/09/02 07:58:53;;;;;;;0.57;0.30;;;10.90;99.90;;;;;;5058470;28;20021;-69
2021/09/02 08:01:22;;;;;;;0.55;0.32;;;10.90;99.90;;;;;;5069133;28;20593;-69
2021/09/02 08:03:49;;;;;;;3.53;1.15;;;10.90;99.90;;;;;;5072254;28;20050;-70
2021/09/02 08:06:15;;;;;;;0.52;0.30;;;10.90;99.90;;;;;;5068301;28;20112;-70
2021/09/02 08:08:41;;;;;;;3.03;0.50;;;11.00;99.90;;;;;;5060605;28;20525;-69
2021/09/02 08:11:06;;;;;;;0.40;0.40;;;11.00;99.90;;;;;;5066352;28;20442;-69
2021/09/02 08:13:32;;;;;;;3.55;0.40;;;11.00;99.90;;;;;;5072445;28;20541;-69
2021/09/02 08:15:58;;;;;;;0.30;0.30;;;11.60;99.90;;;;;;5072690;28;20494;-69
2021/09/02 08:18:24;;;;;;;1.77;0.28;;;11.80;99.90;;;;;;5072372;28;20104;-69
2021/09/02 08:20:50;;;;;;;0.35;0.28;;;11.60;99.90;;;;;;5072493;28;20020;-69
2021/09/02 08:23:16;;;;;;;1.30;0.30;;;11.40;99.90;;;;;;5072072;28;20437;-69
2021/09/02 08:25:41;;;;;;;0.32;0.30;;;11.20;99.90;;;;;;5072398;28;20040;-69
2021/09/02 08:28:07;;;;;;;0.73;0.30;;;11.10;99.90;;;;;;5072245;28;20468;-69
2021/09/02 08:30:33;;;;;;;2.33;0.80;;;11.00;99.90;;;;;;5072060;28;20036;-69
2021/09/02 08:32:59;;;;;;;0.45;0.40;;;11.00;99.90;;;;;;5071863;28;20468;-69
2021/09/02 08:35:29;;;;;;;0.30;0.28;;;11.00;99.90;;;;;;5071867;28;20031;-69
2021/09/02 08:37:58;;;;;;;0.63;0.50;;;10.90;99.90;;;;;;5071810;28;20025;-69
2021/09/02 08:40:26;;;;;;;1.40;0.30;;;10.90;99.90;;;;;;5071644;28;20025;-69
2021/09/02 08:42:54;;;;;;;1.30;0.60;;;10.80;99.90;;;;;;5072002;28;20104;-69
2021/09/02 08:45:24;;;;;;;0.73;0.32;;;10.90;99.90;;;;;;5072009;28;20036;-69
2021/09/02 08:47:50;;;;;;;1.75;0.63;;;10.80;99.90;;;;;;5072113;28;20353;-69
2021/09/02 08:50:21;;;;;;;1.85;0.50;;;10.80;99.90;;;;;;5071854;28;20036;-68
2021/09/02 08:52:47;;;;;;;1.10;0.52;;;10.90;99.90;;;;;;5071970;28;20097;-68
2021/09/02 08:55:14;;;;;;;1.50;0.55;;;10.90;99.90;;;;;;5071647;28;20110;-69
2021/09/02 08:57:40;;;;;;;0.98;0.52;;;10.90;99.90;;;;;;5071703;28;20033;-69
2021/09/02 09:00:07;;;;;;;1.20;0.60;;;10.80;99.90;;;;;;5072065;28;20027;-69
2021/09/02 09:02:33;;;;;;;1.33;0.95;;;10.80;99.90;;;;;;5071742;28;20064;-69
2021/09/02 09:05:05;;;;;;;6.20;0.85;;;10.80;99.90;;;;;;5072016;28;20048;-69
2021/09/02 09:07:33;;;;;;;1.15;0.60;;;10.80;99.90;;;;;;5071916;28;20035;-69
2021/09/02 09:09:59;;;;;;;1.45;0.50;;;10.90;99.90;;;;;;5071657;28;20044;-69
2021/09/02 09:12:35;;;;;;;3.05;0.60;;;10.80;99.90;;;;;;5071410;28;20046;-69
2021/09/02 09:15:03;;;;;;;1.08;0.50;;;10.90;99.90;;;;;;5076023;28;20071;-70
2021/09/02 09:17:29;;;;;;;2.15;0.47;;;11.40;99.90;;;;;;5075651;28;20052;-70
2021/09/02 09:19:54;;;;;;;1.60;0.63;;;11.50;99.90;;;;;;5075909;28;20060;-70
2021/09/02 09:22:29;;;;;;;0.65;0.40;;;11.40;99.90;;;;;;5075604;28;20052;-70
2021/09/02 09:24:58;;;;;;;1.23;0.70;;;11.40;99.90;;;;;;5075446;28;20036;-72
2021/09/02 09:27:36;;;;;;;0.88;0.68;;;11.40;99.90;;;;;;5065946;28;20109;-72
2021/09/02 09:30:20;;;;;;;1.70;0.50;;;11.40;99.90;;;;;;5064822;28;20036;-72
2021/09/02 09:32:47;;;;;;;1.00;0.50;;;11.40;99.90;;;;;;5066222;28;20033;-70
2021/09/02 09:35:25;;;;;;;1.55;0.98;;;11.40;99.90;;;;;;5065490;28;20020;-72
2021/09/02 09:38:15;;;;;;;3.00;0.60;;;11.40;99.90;;;;;;5064232;28;20155;-71
2021/09/02 09:40:46;;;;;;;0.73;0.70;;;11.40;99.90;;;;;;5065794;28;20076;-71
2021/09/02 09:43:13;;;;;;;3.72;0.70;;;11.40;99.90;;;;;;5066356;28;20115;-72
2021/09/02 09:45:45;;;;;;;0.88;0.70;;;11.40;99.90;;;;;;5064233;28;20024;-72
2021/09/02 09:48:17;;;;;;;0.55;0.40;;;11.40;99.90;;;;;;5062776;28;20489;-71
2021/09/02 09:50:44;;;;;;;4.10;0.70;;;11.40;99.90;;;;;;5066503;28;20165;-72
2021/09/02 09:53:27;;;;;;;1.35;0.70;;;11.40;99.90;;;;;;5075209;28;20376;-72
2021/09/02 09:55:54;;;;;;;2.00;0.77;;;11.40;99.90;;;;;;5074690;28;20044;-72
2021/09/02 09:58:24;;;;;;;1.58;0.68;;;11.40;99.90;;;;;;5074798;28;20066;-72
2021/09/02 10:00:55;;;;;;;1.40;0.80;;;11.50;99.90;;;;;;5073466;28;20437;-72
2021/09/02 10:03:21;;;;;;;0.82;0.63;;;11.50;99.90;;;;;;5074937;28;20032;-72
2021/09/02 10:05:48;;;;;;;1.02;0.80;;;11.50;99.90;;;;;;5074463;28;20054;-71
2021/09/02 10:08:15;;;;;;;1.23;0.88;;;11.40;99.90;;;;;;5074525;28;20024;-72
2021/09/02 10:10:41;;;;;;;1.48;0.65;;;11.40;99.90;;;;;;5071576;28;20114;-71
2021/09/02 10:13:08;;;;;;;6.72;1.05;;;11.50;99.90;;;;;;5074360;28;20028;-71
2021/09/02 10:15:35;;;;;;;2.13;1.05;;;11.40;99.90;;;;;;5074449;28;20415;-71
2021/09/02 10:18:04;;;;;;;1.77;1.08;;;11.40;99.90;;;;;;5074567;28;20116;-71
2021/09/02 10:20:38;;;;;;;2.33;1.00;;;11.40;99.90;;;;;;5073098;28;20099;-71
2021/09/02 10:23:05;;;;;;;1.10;0.80;;;11.40;99.90;;;;;;5074679;28;20396;-71
2021/09/02 10:25:34;;;;;;;1.10;0.65;;;11.40;99.90;;;;;;5073524;28;20033;-71
2021/09/02 10:28:02;;;;;;;0.60;0.60;;;11.30;99.90;;;;;;5069853;28;20376;-72
2021/09/02 10:30:31;;;;;;;3.70;0.73;;;11.20;99.90;;;;;;5054245;28;20071;-72
2021/09/02 10:32:59;;;;;;;1.00;0.70;;;11.10;99.90;;;;;;5054516;28;20452;-71
2021/09/02 10:35:24;;;;;;;3.58;0.57;;;11.10;99.90;;;;;;5054106;28;20491;-72
2021/09/02 10:37:52;;;;;;;0.70;0.50;;;11.10;99.90;;;;;;5054316;28;20025;-71
2021/09/02 10:40:18;;;;;;;1.10;0.80;;;11.10;99.90;;;;;;5054430;28;20384;-72
2021/09/02 10:42:43;;;;;;;0.60;0.60;;;11.00;99.90;;;;;;5054385;28;20025;-71
2021/09/02 10:45:27;;;;;;;1.27;0.80;;;11.00;99.90;;;;;;5054093;28;20446;-71
2021/09/02 10:47:54;;;;;;;1.52;0.80;;;10.90;99.90;;;;;;5054108;28;20457;-74
2021/09/02 10:50:22;;;;;;;1.15;0.63;;;10.90;99.90;;;;;;5053869;28;20103;-71
2021/09/02 10:52:49;;;;;;;1.30;0.60;;;10.90;99.90;;;;;;5056093;28;20543;-73
2021/09/02 10:55:34;;;;;;;0.57;0.57;;;10.80;99.90;;;;;;5069904;28;20040;-69
2021/09/02 10:58:03;;;;;;;1.20;0.80;;;10.80;99.90;;;;;;5071077;28;20032;-67
2021/09/02 11:00:37;;;;;;;0.98;0.60;;;11.00;99.90;;;;;;5060071;28;20540;-66
2021/09/02 11:03:24;;;;;;;1.15;0.73;;;11.10;99.90;;;;;;5059176;28;20033;-69
2021/09/02 11:05:56;;;;;;;1.73;0.50;;;11.00;99.90;;;;;;5064098;28;20027;-68
2021/09/02 11:08:36;;;;;;;1.25;0.68;;;10.90;99.90;;;;;;5064580;28;20434;-69
2021/09/02 11:11:16;;;;;;;0.47;0.45;;;10.90;99.90;;;;;;5062541;28;20102;-68
2021/09/02 11:13:44;;;;;;;1.58;0.88;;;10.90;99.90;;;;;;5059930;28;20041;-67
2021/09/02 11:16:23;;;;;;;0.85;0.63;;;11.60;99.90;;;;;;5065155;28;20027;-70
2021/09/02 11:18:53;;;;;;;0.88;0.50;;;11.70;99.90;;;;;;5069478;28;20032;-70
2021/09/02 11:21:23;;;;;;;0.93;0.70;;;11.50;99.90;;;;;;5058839;28;20361;-70
2021/09/02 11:24:12;;;;;;;1.17;0.77;;;11.40;99.90;;;;;;5055651;28;20039;-69
2021/09/02 11:26:42;;;;;;;0.70;0.63;;;11.30;99.90;;;;;;5066162;28;20039;-69
2021/09/02 11:29:19;;;;;;;2.22;0.50;;;11.20;99.90;;;;;;5053402;28;20361;-69
2021/09/02 11:32:01;;;;;;;1.73;0.73;;;11.20;99.90;;;;;;5052986;28;20071;-70
2021/09/02 11:34:27;;;;;;;1.45;0.40;;;11.20;99.90;;;;;;5053025;28;20496;-70
2021/09/02 11:36:53;;;;;;;0.50;0.50;;;11.80;99.90;;;;;;5053238;28;20025;-70
2021/09/02 11:39:19;;;;;;;0.93;0.60;;;12.30;99.90;;;;;;5053018;28;20025;-70
2021/09/02 11:41:45;;;;;;;0.70;0.65;;;12.10;99.90;;;;;;5052991;28;20021;-70
2021/09/02 11:44:18;;;;;;;0.60;0.60;;;11.90;99.90;;;;;;5070389;28;20028;-71
2021/09/02 11:46:45;;;;;;;0.88;0.70;;;11.70;99.90;;;;;;5062147;28;20074;-71
2021/09/02 11:49:17;;;;;;;0.60;0.50;;;11.60;99.90;;;;;;5063343;28;20032;-71
2021/09/02 11:51:56;;;;;;;1.02;0.70;;;11.50;99.90;;;;;;5062147;28;20020;-71
2021/09/02 11:54:24;;;;;;;2.22;0.50;;;11.40;99.90;;;;;;5061996;28;20446;-71
2021/09/02 11:56:50;;;;;;;0.60;0.50;;;11.30;99.90;;;;;;5063032;28;20032;-71
2021/09/02 11:59:15;;;;;;;0.60;0.60;;;11.30;99.90;;;;;;5061224;28;20025;-69
2021/09/02 12:01:46;;;;;;;0.40;0.40;;;11.30;99.90;;;;;;5062596;28;20032;-69
2021/09/02 12:04:19;;;;;;;0.60;0.60;;;11.20;99.90;;;;;;5061193;28;20052;-69
2021/09/02 12:06:48;;;;;;;0.68;0.47;;;11.20;99.90;;;;;;5061149;28;20040;-70
2021/09/02 12:09:18;;;;;;;0.93;0.60;;;11.10;99.90;;;;;;5061914;28;20025;-71
2021/09/02 12:11:44;;;;;;;0.75;0.60;;;11.10;99.90;;;;;;5060440;28;20025;-71
2021/09/02 12:14:18;;;;;;;1.02;0.70;;;11.10;99.90;;;;;;5062311;28;20105;-71
2021/09/02 12:16:44;;;;;;;1.75;0.60;;;11.10;99.90;;;;;;5054892;28;20028;-70
2021/09/02 12:19:10;;;;;;;1.42;0.75;;;11.10;99.90;;;;;;5052071;28;20032;-72
2021/09/02 12:21:36;;;;;;;2.08;0.50;;;11.30;99.90;;;;;;5052151;28;20025;-79
2021/09/02 12:24:12;;;;;;;0.73;0.50;;;11.60;99.90;;;;;;5052018;28;20029;-71
2021/09/02 12:26:55;;;;;;;1.00;0.52;;;12.20;99.90;;;;;;5052265;28;20104;-72
2021/09/02 12:29:23;;;;;;;1.33;0.75;;;12.00;99.90;;;;;;5051901;28;20021;-71
2021/09/02 12:31:51;;;;;;;3.90;0.88;;;11.70;99.90;;;;;;5052128;28;20020;-70
2021/09/02 12:34:29;;;;;;;3.53;0.90;;;11.50;99.90;;;;;;5051876;28;20049;-70
2021/09/02 12:37:05;;;;;;;1.05;0.80;;;11.40;99.90;;;;;;5051768;28;20484;-70
2021/09/02 12:39:36;;;;;;;3.45;0.70;;;11.30;99.90;;;;;;5052169;28;20416;-71
2021/09/02 12:42:07;;;;;;;1.33;0.70;;;11.20;99.90;;;;;;5052260;28;20036;-69
2021/09/02 12:44:34;;;;;;;1.05;0.60;;;11.20;99.90;;;;;;5051972;28;20063;-71
2021/09/02 12:47:17;;;;;;;0.65;0.63;;;11.10;99.90;;;;;;5051969;28;20101;-71
2021/09/02 12:49:48;;;;;;;1.08;0.50;;;11.00;99.90;;;;;;5051182;28;20070;-72
2021/09/02 12:52:21;;;;;;;4.88;0.60;;;11.00;99.90;;;;;;5052004;28;20110;-72
2021/09/02 12:55:11;;;;;;;0.90;0.60;;;11.00;99.90;;;;;;5051393;28;20405;-71
2021/09/02 12:57:42;;;;;;;1.50;0.70;;;10.90;99.90;;;;;;5051757;28;20385;-71
2021/09/02 13:00:23;;;;;;;2.47;0.80;;;10.90;99.90;;;;;;5052018;28;20385;-71
2021/09/02 13:02:51;;;;;;;2.58;0.70;;;10.90;99.90;;;;;;5051607;28;20108;-71
2021/09/02 13:05:18;;;;;;;1.80;0.68;;;10.80;99.90;;;;;;5051601;28;20044;-72
2021/09/02 13:07:46;;;;;;;1.88;0.90;;;11.00;99.90;;;;;;5051531;28;20025;-73
2021/09/02 13:10:14;;;;;;;1.00;0.77;;;11.40;99.90;;;;;;5051501;28;20524;-71
2021/09/02 13:12:40;;;;;;;2.53;0.70;;;11.40;99.90;;;;;;5054361;28;20046;-70
2021/09/02 13:15:06;;;;;;;0.50;0.50;;;11.20;99.90;;;;;;5061479;28;20032;-70
2021/09/02 13:17:32;;;;;;;1.73;0.50;;;11.10;99.90;;;;;;5061927;28;20350;-75
2021/09/02 13:19:58;;;;;;;4.85;0.80;;;11.30;99.90;;;;;;5059604;28;20020;-75
2021/09/02 13:22:23;;;;;;;1.92;0.82;;;12.20;99.90;;;;;;5059873;28;20036;-70
2021/09/02 13:24:49;;;;;;;3.47;1.10;;;11.90;99.90;;;;;;5051837;28;20021;-70
2021/09/02 13:27:15;;;;;;;1.50;0.98;;;11.40;99.90;;;;;;5060304;28;20037;-73